Für Piloten

Informationen für Piloten zum Flugplatz Borken-Hoxfeld
Hier findest Du alle relevanten Informationen, die Du als Pilot benötigst, um Borken-Hoxfeld anzufliegen.

Flugplatz: Borken-Hoxfeld ICAO-Code: EDLY
Borken-Hoxfeld Info: 122,930 Mhz
GAFOR Gebiet: 32
Platzrunde: Motorflug; -> Südplatzrunde; Segelflug; -> Nordplatzrunde;
Landegebühr: z.Zt. 5,00 Euro
Platzhöhe: 48m üMSL
Pisten: 12/30 – 740 m x 30 m, GRAS
Betriebszeiten: PPR (in den Sommermonaten Mittagspause beachten)

 

Wetterforecast:

Available data for EDDL from the past 2 hours
DUESSELDORF
Metar
EDDL 110350Z 30007KT 260V320 8000 -RADZ FEW003 BKN006 BKN010 05/04 Q1007 TEMPO 4000 BKN004

03:50 UTC

Wind: 300° 7kt

Visibility: 8000 m

Sky: FEW 300 ft

Temp: 5 deg C / 41 deg F

Dewpoint: 4 deg C / 39.2 deg F

Pressure: 1007 hPa

TAF
TAF EDDL 102300Z 1100/1206 17012KT 9999 BKN030 PROB40 TEMPO 1100/1103 4500 RA BKN009 BECMG 1100/1103 24004KT BKN012 BECMG 1103/1106 31008KT TEMPO 1103/1111 2000 -DZRA BKN004 BECMG 1113/1116 BKN020 TEMPO 1116/1118 BKN012 BECMG 1200/1203 25004KT

Alle obigen Informationen ersetzen nicht die vorgeschriebene, persönliche Flugvorbereitung.